createdAt,value
2023-04-09T00:01:21.715Z,101221.83
2023-04-09T00:03:50.076Z,101217.75
2023-04-09T00:06:20.573Z,101215.91
2023-04-09T00:08:51.377Z,101213.77
2023-04-09T00:11:23.657Z,101213.94
2023-04-09T00:13:54.342Z,101212.08
2023-04-09T00:16:24.638Z,101217.02
2023-04-09T00:18:52.474Z,101218.20
2023-04-09T00:21:20.826Z,101217.66
2023-04-09T00:23:48.432Z,101220.02
2023-04-09T00:26:31.171Z,101218.41
2023-04-09T00:29:01.232Z,101217.13
2023-04-09T00:31:29.164Z,101216.84
2023-04-09T00:33:57.015Z,101212.09
2023-04-09T00:36:27.017Z,101210.40
2023-04-09T00:38:59.381Z,101208.15
2023-04-09T00:41:27.767Z,101205.61
2023-04-09T00:43:56.836Z,101205.42
2023-04-09T00:46:24.603Z,101201.45
2023-04-09T00:48:53.141Z,101194.90
2023-04-09T00:51:21.142Z,101194.66
2023-04-09T00:53:49.130Z,101192.15
2023-04-09T00:56:22.343Z,101192.16
2023-04-09T00:58:51.368Z,101192.55
2023-04-09T01:01:19.448Z,101194.42
2023-04-09T01:03:47.416Z,101194.91
2023-04-09T01:06:23.283Z,101189.64
2023-04-09T01:08:58.385Z,101192.67
2023-04-09T01:11:34.617Z,101192.48
2023-04-09T01:14:06.306Z,101190.95
2023-04-09T01:16:36.769Z,101194.08
2023-04-09T01:19:09.559Z,101194.19
2023-04-09T01:21:38.834Z,101194.52
2023-04-09T01:24:19.201Z,101198.84
2023-04-09T01:26:53.973Z,101195.97
2023-04-09T01:29:25.321Z,101198.32
2023-04-09T01:31:54.102Z,101202.67
2023-04-09T01:34:22.367Z,101205.44
2023-04-09T01:36:51.969Z,101211.80
2023-04-09T01:39:20.991Z,101212.69
2023-04-09T01:41:49.718Z,101214.56
2023-04-09T01:44:18.222Z,101215.02
2023-04-09T01:46:46.662Z,101219.83
2023-04-09T01:49:14.471Z,101222.56
2023-04-09T01:51:45.847Z,101225.27
2023-04-09T01:54:13.527Z,101225.23
2023-04-09T01:56:41.756Z,101226.88
2023-04-09T01:59:12.419Z,101225.52
2023-04-09T02:01:42.217Z,101226.77
2023-04-09T02:04:14.332Z,101224.63
2023-04-09T02:06:47.586Z,101221.05
2023-04-09T02:09:18.602Z,101221.52
2023-04-09T02:11:48.322Z,101222.78
2023-04-09T02:14:16.593Z,101221.01
2023-04-09T02:16:45.482Z,101221.96
2023-04-09T02:19:13.270Z,101225.06
2023-04-09T02:21:40.957Z,101225.52
2023-04-09T02:24:09.246Z,101227.59
2023-04-09T02:26:36.849Z,101225.81
2023-04-09T02:29:06.759Z,101225.79
2023-04-09T02:31:35.451Z,101228.58
2023-04-09T02:34:03.096Z,101223.31
2023-04-09T02:36:30.847Z,101222.61
2023-04-09T02:39:00.899Z,101224.73
2023-04-09T02:41:28.715Z,101224.09
2023-04-09T02:43:56.530Z,101224.38
2023-04-09T02:46:27.859Z,101222.85
2023-04-09T02:48:55.645Z,101223.59
2023-04-09T02:51:23.314Z,101218.65
2023-04-09T02:53:50.975Z,101214.48
2023-04-09T02:56:22.425Z,101215.48
2023-04-09T02:58:53.431Z,101212.84
2023-04-09T03:01:21.596Z,101213.40
2023-04-09T03:03:49.491Z,101216.73
2023-04-09T03:06:20.297Z,101217.89
2023-04-09T03:08:48.017Z,101219.00
2023-04-09T03:11:40.752Z,101216.52
2023-04-09T03:14:08.724Z,101218.98
2023-04-09T03:16:36.485Z,101219.10
2023-04-09T03:19:06.736Z,101216.30
2023-04-09T03:21:37.862Z,101218.23
2023-04-09T03:24:07.446Z,101216.65
2023-04-09T03:26:35.872Z,101218.08
2023-04-09T03:29:09.864Z,101216.50
2023-04-09T03:31:39.265Z,101214.36
2023-04-09T03:34:08.463Z,101207.98
2023-04-09T03:36:36.292Z,101212.64
2023-04-09T03:39:08.242Z,101206.69
2023-04-09T03:41:38.455Z,101203.39
2023-04-09T03:44:11.185Z,101196.39
2023-04-09T03:47:02.661Z,101191.02
2023-04-09T03:49:31.338Z,101185.31
2023-04-09T03:52:08.760Z,101185.59
2023-04-09T03:54:38.842Z,101193.18
2023-04-09T03:57:15.063Z,101193.86
2023-04-09T03:59:44.648Z,101196.10
2023-04-09T04:02:13.017Z,101203.02
2023-04-09T04:04:45.657Z,101205.07
2023-04-09T04:07:18.161Z,101205.65
2023-04-09T04:09:54.289Z,101203.38
2023-04-09T04:12:22.252Z,101208.06
2023-04-09T04:15:14.919Z,101208.66
2023-04-09T04:17:46.152Z,101207.67
2023-04-09T04:20:43.059Z,101205.42
2023-04-09T04:23:20.059Z,101207.77
2023-04-09T04:25:58.726Z,101207.33
2023-04-09T04:28:31.079Z,101207.27
2023-04-09T04:30:59.885Z,101206.64
2023-04-09T04:33:28.268Z,101209.31
2023-04-09T04:36:05.929Z,101213.29
2023-04-09T04:38:41.168Z,101216.76
2023-04-09T04:41:20.836Z,101217.43
2023-04-09T04:43:56.812Z,101219.13
2023-04-09T04:46:25.550Z,101223.80
2023-04-09T04:48:53.442Z,101229.40
2023-04-09T04:51:23.706Z,101230.27
2023-04-09T04:54:04.635Z,101236.48
2023-04-09T04:56:35.451Z,101235.69
2023-04-09T04:59:07.862Z,101236.94
2023-04-09T05:01:51.837Z,101236.83
2023-04-09T05:04:21.160Z,101237.20
2023-04-09T05:06:50.599Z,101237.75
2023-04-09T05:09:22.455Z,101240.23
2023-04-09T05:12:08.722Z,101240.50
2023-04-09T05:14:36.514Z,101241.01
2023-04-09T05:17:04.726Z,101242.61
2023-04-09T05:19:41.563Z,101242.73
2023-04-09T05:22:10.287Z,101241.63
2023-04-09T05:24:38.118Z,101237.37
2023-04-09T05:27:09.186Z,101239.27
2023-04-09T05:29:37.220Z,101240.76
2023-04-09T05:32:08.981Z,101241.82
2023-04-09T05:34:38.442Z,101245.18
2023-04-09T05:37:06.761Z,101245.27
2023-04-09T05:39:36.501Z,101242.20
2023-04-09T05:42:05.317Z,101240.95
2023-04-09T05:44:50.041Z,101240.25
2023-04-09T05:47:20.318Z,101238.96
2023-04-09T05:49:57.484Z,101238.02
2023-04-09T05:52:26.404Z,101238.30
2023-04-09T05:54:56.150Z,101239.10
2023-04-09T05:57:30.069Z,101234.85
2023-04-09T06:00:00.989Z,101239.20
2023-04-09T06:02:30.002Z,101242.05
2023-04-09T06:04:58.607Z,101245.06
2023-04-09T06:07:26.768Z,101253.16
2023-04-09T06:09:56.859Z,101251.91
2023-04-09T06:12:25.338Z,101254.80
2023-04-09T06:14:53.204Z,101253.26
2023-04-09T06:17:21.234Z,101254.63
2023-04-09T06:19:55.601Z,101255.14
2023-04-09T06:22:23.822Z,101254.52
2023-04-09T06:24:54.313Z,101252.95
2023-04-09T06:27:22.798Z,101251.87
2023-04-09T06:29:51.720Z,101254.19
2023-04-09T06:32:26.902Z,101255.21
2023-04-09T06:34:56.687Z,101258.85
2023-04-09T06:37:25.005Z,101258.84
2023-04-09T06:40:00.370Z,101257.27
2023-04-09T06:42:30.181Z,101257.80
2023-04-09T06:45:16.714Z,101254.84
2023-04-09T06:47:45.102Z,101255.72
2023-04-09T06:50:13.188Z,101256.67
2023-04-09T06:52:41.126Z,101257.30
2023-04-09T06:55:10.234Z,101263.09
2023-04-09T06:57:39.156Z,101264.73
2023-04-09T07:00:13.108Z,101265.99
2023-04-09T07:02:43.013Z,101268.48
2023-04-09T07:05:12.008Z,101270.71
2023-04-09T07:07:44.626Z,101274.23
2023-04-09T07:10:14.970Z,101270.58
2023-04-09T07:12:42.907Z,101272.56
2023-04-09T07:15:11.120Z,101272.87
2023-04-09T07:17:40.887Z,101277.11
2023-04-09T07:20:11.462Z,101279.92
2023-04-09T07:22:39.223Z,101279.55
2023-04-09T07:25:11.660Z,101280.48
2023-04-09T07:27:39.311Z,101284.98
2023-04-09T07:30:08.481Z,101281.39
2023-04-09T07:32:37.750Z,101277.30
2023-04-09T07:35:09.188Z,101278.62
2023-04-09T07:37:36.976Z,101277.02
2023-04-09T07:40:08.034Z,101276.48
2023-04-09T07:42:38.849Z,101277.05
2023-04-09T07:45:11.024Z,101283.00
2023-04-09T07:47:40.161Z,101280.25
2023-04-09T07:50:09.460Z,101284.58
2023-04-09T07:52:37.975Z,101281.87
2023-04-09T07:55:08.070Z,101281.31
2023-04-09T07:57:39.015Z,101281.79
2023-04-09T08:00:08.920Z,101282.48
2023-04-09T08:02:47.016Z,101283.94
2023-04-09T08:05:15.384Z,101283.08
2023-04-09T08:07:44.230Z,101280.98
2023-04-09T08:10:14.675Z,101287.11
2023-04-09T08:12:45.342Z,101288.55
2023-04-09T08:15:13.168Z,101286.54
2023-04-09T08:17:43.252Z,101283.83
2023-04-09T08:20:12.647Z,101280.93
2023-04-09T08:22:41.642Z,101282.49
2023-04-09T08:25:09.378Z,101281.41
2023-04-09T08:27:37.096Z,101280.42
2023-04-09T08:30:10.035Z,101281.20
2023-04-09T08:32:37.892Z,101282.48
2023-04-09T08:35:06.919Z,101285.55
2023-04-09T08:37:35.455Z,101284.73
2023-04-09T08:40:04.818Z,101284.27
2023-04-09T08:42:34.541Z,101282.54
2023-04-09T08:45:04.162Z,101284.34
2023-04-09T08:47:32.309Z,101281.49
2023-04-09T08:50:01.092Z,101279.03
2023-04-09T08:52:32.205Z,101280.23
2023-04-09T08:55:01.006Z,101278.40
2023-04-09T08:57:28.985Z,101276.64
2023-04-09T08:59:58.279Z,101278.02
2023-04-09T09:02:27.134Z,101279.58
2023-04-09T09:05:00.293Z,101282.84
2023-04-09T09:07:28.909Z,101281.80
2023-04-09T09:10:03.535Z,101283.09
2023-04-09T09:12:34.531Z,101284.58
2023-04-09T09:15:02.284Z,101289.55
2023-04-09T09:17:30.078Z,101290.71
2023-04-09T09:19:58.965Z,101293.31
2023-04-09T09:22:28.020Z,101293.59
2023-04-09T09:24:56.885Z,101293.64
2023-04-09T09:27:38.997Z,101297.71
2023-04-09T09:30:09.969Z,101299.26
2023-04-09T09:32:37.756Z,101299.86
2023-04-09T09:35:07.754Z,101300.04
2023-04-09T09:37:35.381Z,101297.86
2023-04-09T09:40:06.582Z,101296.05
2023-04-09T09:42:35.383Z,101295.91
2023-04-09T09:45:04.626Z,101299.75
2023-04-09T09:47:34.860Z,101297.69
2023-04-09T09:50:03.195Z,101294.41
2023-04-09T09:52:30.942Z,101297.55
2023-04-09T09:55:03.723Z,101293.63
2023-04-09T09:57:43.213Z,101290.48
2023-04-09T10:00:13.073Z,101290.81
2023-04-09T10:02:43.990Z,101286.94
2023-04-09T10:05:11.743Z,101284.64
2023-04-09T10:07:40.518Z,101286.46
2023-04-09T10:10:09.104Z,101286.67
2023-04-09T10:12:37.208Z,101282.77
2023-04-09T10:15:05.761Z,101281.08
2023-04-09T10:17:34.955Z,101277.52
2023-04-09T10:20:07.464Z,101280.65
2023-04-09T10:22:35.887Z,101278.02
2023-04-09T10:25:04.032Z,101275.36
2023-04-09T10:27:32.164Z,101275.97
2023-04-09T10:30:04.837Z,101273.79
2023-04-09T10:32:39.137Z,101275.41
2023-04-09T10:35:09.262Z,101274.38
2023-04-09T10:37:37.113Z,101278.23
2023-04-09T10:40:18.535Z,101274.38
2023-04-09T10:42:50.237Z,101274.38
2023-04-09T10:47:49.727Z,101275.65
2023-04-09T10:50:19.284Z,101271.69
2023-04-09T10:52:47.137Z,101274.02
2023-04-09T10:55:33.932Z,101270.61
2023-04-09T10:58:02.377Z,101266.94
2023-04-09T11:00:30.112Z,101266.62
2023-04-09T11:03:13.513Z,101267.39
2023-04-09T11:05:46.462Z,101268.45
2023-04-09T11:08:14.206Z,101270.73
2023-04-09T11:10:43.394Z,101266.72
2023-04-09T11:13:12.386Z,101266.59
2023-04-09T11:15:40.891Z,101264.20
2023-04-09T11:18:10.086Z,101267.11
2023-04-09T11:20:38.486Z,101263.13
2023-04-09T11:23:07.006Z,101255.64
2023-04-09T11:25:39.031Z,101256.55
2023-04-09T11:28:07.678Z,101253.21
2023-04-09T11:30:36.913Z,101256.39
2023-04-09T11:33:04.678Z,101257.46
2023-04-09T11:35:34.438Z,101252.04
2023-04-09T11:38:05.755Z,101252.99
2023-04-09T11:40:35.388Z,101250.64
2023-04-09T11:43:08.329Z,101249.69
2023-04-09T11:45:37.877Z,101247.23
2023-04-09T11:48:10.158Z,101245.70
2023-04-09T11:50:39.708Z,101249.88
2023-04-09T11:53:18.509Z,101259.71
2023-04-09T11:55:49.406Z,101252.53
2023-04-09T11:58:17.343Z,101254.87
2023-04-09T12:00:46.387Z,101250.72
2023-04-09T12:03:15.989Z,101245.50
2023-04-09T12:05:50.514Z,101240.58
2023-04-09T12:08:23.409Z,101241.05
2023-04-09T12:10:53.939Z,101240.16
2023-04-09T12:13:31.961Z,101237.08
2023-04-09T12:16:05.697Z,101235.19
2023-04-09T12:18:37.157Z,101234.10
2023-04-09T12:21:05.534Z,101237.60
2023-04-09T12:23:38.133Z,101237.67
2023-04-09T12:28:50.831Z,101239.91
2023-04-09T12:31:21.288Z,101241.98
2023-04-09T12:33:49.792Z,101242.45
2023-04-09T12:36:23.557Z,101245.09
2023-04-09T12:38:51.545Z,101245.39
2023-04-09T12:41:26.201Z,101240.36
2023-04-09T12:43:54.084Z,101237.65
2023-04-09T12:46:21.885Z,101236.45
2023-04-09T12:48:49.846Z,101239.38
2023-04-09T12:51:18.433Z,101234.64
2023-04-09T12:53:46.243Z,101228.05
2023-04-09T12:56:22.408Z,101225.35
2023-04-09T12:58:53.476Z,101220.20
2023-04-09T13:01:21.804Z,101223.41
2023-04-09T13:03:49.803Z,101220.86
2023-04-09T13:06:24.185Z,101218.47
2023-04-09T13:08:52.130Z,101219.67
2023-04-09T13:11:21.134Z,101215.88
2023-04-09T13:13:48.906Z,101216.65
2023-04-09T13:16:23.920Z,101218.88
2023-04-09T13:18:53.134Z,101217.21
2023-04-09T13:21:21.244Z,101216.42
2023-04-09T13:23:49.088Z,101218.39
2023-04-09T13:26:41.904Z,101214.38
2023-04-09T13:29:12.427Z,101211.02
2023-04-09T13:31:40.218Z,101213.77
2023-04-09T13:34:08.448Z,101217.22
2023-04-09T13:36:36.374Z,101217.13
2023-04-09T13:39:04.583Z,101216.73
2023-04-09T13:41:35.309Z,101215.59
2023-04-09T13:44:03.990Z,101214.90
2023-04-09T13:46:34.448Z,101216.84
2023-04-09T13:49:02.804Z,101217.05
2023-04-09T13:51:30.944Z,101214.50
2023-04-09T13:53:59.063Z,101216.31
2023-04-09T13:56:28.170Z,101218.73
2023-04-09T13:58:56.007Z,101217.48
2023-04-09T14:01:26.882Z,101214.91
2023-04-09T14:03:57.408Z,101217.46
2023-04-09T14:06:26.458Z,101216.96
2023-04-09T14:08:56.561Z,101212.46
2023-04-09T14:11:25.050Z,101210.30
2023-04-09T14:13:54.033Z,101209.06
2023-04-09T14:16:23.138Z,101210.73
2023-04-09T14:18:51.803Z,101208.47
2023-04-09T14:21:20.330Z,101209.39
2023-04-09T14:23:50.441Z,101211.38
2023-04-09T14:26:26.015Z,101210.05
2023-04-09T14:28:54.438Z,101206.50
2023-04-09T14:31:28.545Z,101207.23
2023-04-09T14:33:56.963Z,101208.45
2023-04-09T14:36:28.149Z,101206.73
2023-04-09T14:39:03.589Z,101203.45
2023-04-09T14:41:34.473Z,101201.88
2023-04-09T14:44:02.399Z,101199.35
2023-04-09T14:46:30.148Z,101197.31
2023-04-09T14:49:00.553Z,101193.54
2023-04-09T14:51:29.907Z,101196.42
2023-04-09T14:53:57.907Z,101196.33
2023-04-09T14:56:25.621Z,101198.37
2023-04-09T14:58:57.085Z,101198.13
2023-04-09T15:01:25.662Z,101195.57
2023-04-09T15:03:57.075Z,101194.15
2023-04-09T15:06:38.759Z,101193.35
2023-04-09T15:09:06.474Z,101191.00
2023-04-09T15:11:37.968Z,101188.94
2023-04-09T15:14:08.427Z,101191.67
2023-04-09T15:16:36.995Z,101189.85
2023-04-09T15:19:04.796Z,101191.56
2023-04-09T15:21:32.444Z,101188.42
2023-04-09T15:24:03.077Z,101183.45
2023-04-09T15:26:35.888Z,101182.33
2023-04-09T15:29:05.890Z,101181.09
2023-04-09T15:31:38.027Z,101178.66
2023-04-09T15:34:07.077Z,101173.58
2023-04-09T15:36:41.328Z,101178.20
2023-04-09T15:39:09.381Z,101177.13
2023-04-09T15:41:37.269Z,101179.24
2023-04-09T15:44:04.976Z,101178.65
2023-04-09T15:46:40.076Z,101186.95
2023-04-09T15:49:09.825Z,101187.27
2023-04-09T15:51:37.473Z,101187.52
2023-04-09T15:54:06.275Z,101186.71
2023-04-09T15:56:42.902Z,101186.57
2023-04-09T15:59:11.099Z,101188.59
2023-04-09T16:01:39.428Z,101189.20
2023-04-09T16:04:08.666Z,101191.86
2023-04-09T16:06:38.484Z,101193.61
2023-04-09T16:09:06.192Z,101189.98
2023-04-09T16:11:36.944Z,101194.30
2023-04-09T16:14:05.524Z,101193.65
2023-04-09T16:16:36.291Z,101192.64
2023-04-09T16:19:04.120Z,101194.96
2023-04-09T16:21:43.067Z,101195.99
2023-04-09T16:24:15.309Z,101195.30
2023-04-09T16:26:43.730Z,101198.52
2023-04-09T16:29:11.884Z,101197.06
2023-04-09T16:31:41.827Z,101194.30
2023-04-09T16:34:10.493Z,101196.87
2023-04-09T16:36:40.763Z,101198.61
2023-04-09T16:39:08.522Z,101199.88
2023-04-09T16:41:37.035Z,101205.95
2023-04-09T16:44:04.840Z,101204.21
2023-04-09T16:46:33.997Z,101206.91
2023-04-09T16:49:01.949Z,101210.07
2023-04-09T16:51:32.065Z,101210.33
2023-04-09T16:54:02.454Z,101213.00
2023-04-09T16:56:30.222Z,101215.12
2023-04-09T16:58:58.264Z,101218.31
2023-04-09T17:01:28.797Z,101221.83
2023-04-09T17:03:58.985Z,101222.44
2023-04-09T17:06:27.384Z,101223.59
2023-04-09T17:08:55.199Z,101224.61
2023-04-09T17:11:27.137Z,101225.09
2023-04-09T17:13:55.121Z,101229.08
2023-04-09T17:16:27.798Z,101225.45
2023-04-09T17:18:58.410Z,101227.23
2023-04-09T17:21:26.863Z,101229.53
2023-04-09T17:23:57.084Z,101228.63
2023-04-09T17:26:24.891Z,101230.58
2023-04-09T17:28:53.368Z,101229.98
2023-04-09T17:31:27.145Z,101232.58
2023-04-09T17:33:57.368Z,101237.52
2023-04-09T17:36:29.099Z,101238.42
2023-04-09T17:38:58.480Z,101236.64
2023-04-09T17:41:31.964Z,101237.60
2023-04-09T17:44:01.300Z,101239.10
2023-04-09T17:46:28.968Z,101244.05
2023-04-09T17:49:00.389Z,101247.23
2023-04-09T17:51:30.534Z,101245.17
2023-04-09T17:53:58.356Z,101250.44
2023-04-09T17:56:26.638Z,101249.42
2023-04-09T17:58:55.114Z,101257.71
2023-04-09T18:01:23.825Z,101262.14
2023-04-09T18:03:52.007Z,101266.40
2023-04-09T18:06:26.140Z,101267.44
2023-04-09T18:08:55.440Z,101271.91
2023-04-09T18:11:25.355Z,101275.52
2023-04-09T18:13:53.084Z,101277.11
2023-04-09T18:16:22.573Z,101280.17
2023-04-09T18:18:52.639Z,101285.48
2023-04-09T18:21:21.548Z,101289.16
2023-04-09T18:23:49.394Z,101288.46
2023-04-09T18:26:24.680Z,101290.38
2023-04-09T18:28:53.148Z,101295.41
2023-04-09T18:31:35.499Z,101295.65
2023-04-09T18:34:03.644Z,101297.66
2023-04-09T18:36:31.471Z,101303.13
2023-04-09T18:38:59.254Z,101301.98
2023-04-09T18:41:30.473Z,101305.73
2023-04-09T18:43:58.933Z,101305.94
2023-04-09T18:46:27.316Z,101301.05
2023-04-09T18:48:56.558Z,101301.81
2023-04-09T18:51:24.361Z,101308.19
2023-04-09T18:53:55.949Z,101305.23
2023-04-09T18:56:24.990Z,101304.77
2023-04-09T18:58:53.485Z,101308.42
2023-04-09T19:01:25.878Z,101313.79
2023-04-09T19:03:54.149Z,101314.61
2023-04-09T19:06:22.807Z,101311.55
2023-04-09T19:08:56.889Z,101303.71
2023-04-09T19:11:25.752Z,101305.81
2023-04-09T19:13:57.757Z,101306.02
2023-04-09T19:16:27.631Z,101302.45
2023-04-09T19:18:56.774Z,101300.69
2023-04-09T19:21:27.075Z,101300.04
2023-04-09T19:23:55.318Z,101302.13
2023-04-09T19:26:23.654Z,101300.76
2023-04-09T19:28:51.956Z,101300.80
2023-04-09T19:31:20.706Z,101302.85
2023-04-09T19:33:51.225Z,101300.88
2023-04-09T19:36:22.459Z,101304.65
2023-04-09T19:38:50.679Z,101305.13
2023-04-09T19:41:21.562Z,101304.79
2023-04-09T19:43:49.393Z,101304.65
2023-04-09T19:46:19.391Z,101305.20
2023-04-09T19:48:47.769Z,101300.86
2023-04-09T19:51:22.021Z,101299.34
2023-04-09T19:53:49.910Z,101299.54
2023-04-09T19:56:22.647Z,101301.53
2023-04-09T19:58:51.196Z,101299.63
2023-04-09T20:01:21.509Z,101305.31
2023-04-09T20:03:49.604Z,101305.63
2023-04-09T20:06:22.655Z,101308.09
2023-04-09T20:08:52.935Z,101302.73
2023-04-09T20:11:23.599Z,101306.52
2023-04-09T20:13:51.312Z,101304.13
2023-04-09T20:16:23.621Z,101301.68
2023-04-09T20:18:52.873Z,101302.11
2023-04-09T20:21:20.973Z,101301.14
2023-04-09T20:23:50.036Z,101300.55
2023-04-09T20:26:21.882Z,101306.91
2023-04-09T20:28:49.964Z,101300.46
2023-04-09T20:31:18.480Z,101298.89
2023-04-09T20:33:49.316Z,101300.69
2023-04-09T20:36:20.895Z,101302.27
2023-04-09T20:38:48.777Z,101308.08
2023-04-09T20:41:25.186Z,101307.09
2023-04-09T20:43:55.874Z,101304.71
2023-04-09T20:46:24.435Z,101309.58
2023-04-09T20:48:54.820Z,101309.02
2023-04-09T20:51:22.747Z,101311.14
2023-04-09T20:53:51.752Z,101311.29
2023-04-09T20:56:27.230Z,101310.55
2023-04-09T20:58:56.807Z,101311.88
2023-04-09T21:01:26.671Z,101309.91
2023-04-09T21:03:54.476Z,101305.39
2023-04-09T21:06:24.254Z,101303.48
2023-04-09T21:08:52.146Z,101301.70
2023-04-09T21:11:21.304Z,101299.28
2023-04-09T21:13:55.052Z,101301.55
2023-04-09T21:16:27.960Z,101299.75
2023-04-09T21:18:55.855Z,101295.39
2023-04-09T21:21:26.782Z,101297.02
2023-04-09T21:23:57.591Z,101297.02
2023-04-09T21:26:25.877Z,101298.00
2023-04-09T21:28:53.899Z,101301.33
2023-04-09T21:31:22.142Z,101304.23
2023-04-09T21:33:52.720Z,101304.67
2023-04-09T21:36:20.765Z,101303.27
2023-04-09T21:38:51.210Z,101303.83
2023-04-09T21:41:24.367Z,101301.55
2023-04-09T21:43:55.010Z,101302.43
2023-04-09T21:46:24.703Z,101302.07
2023-04-09T21:48:53.041Z,101303.42
2023-04-09T21:51:21.162Z,101299.85
2023-04-09T21:53:49.157Z,101302.06
2023-04-09T21:56:25.359Z,101298.03
2023-04-09T21:58:53.200Z,101299.70
2023-04-09T22:01:29.209Z,101304.33
2023-04-09T22:03:57.777Z,101304.69
2023-04-09T22:06:26.908Z,101302.75
2023-04-09T22:08:57.053Z,101310.48
2023-04-09T22:11:27.059Z,101307.39
2023-04-09T22:13:58.015Z,101307.76
2023-04-09T22:16:26.259Z,101304.05
2023-04-09T22:18:55.051Z,101305.67
2023-04-09T22:21:25.421Z,101306.53
2023-04-09T22:23:53.831Z,101305.71
2023-04-09T22:26:23.386Z,101304.91
2023-04-09T22:28:53.137Z,101307.11
2023-04-09T22:31:21.470Z,101308.37
2023-04-09T22:33:49.409Z,101308.59
2023-04-09T22:36:23.195Z,101309.78
2023-04-09T22:38:55.202Z,101309.05
2023-04-09T22:41:23.812Z,101308.94
2023-04-09T22:43:52.015Z,101308.86
2023-04-09T22:46:21.741Z,101310.43
2023-04-09T22:48:52.381Z,101313.08
2023-04-09T22:51:20.139Z,101310.92
2023-04-09T22:53:47.901Z,101310.31
2023-04-09T22:56:25.430Z,101312.38
2023-04-09T22:58:53.441Z,101310.58
2023-04-09T23:01:21.585Z,101308.55
2023-04-09T23:03:49.875Z,101310.18
2023-04-09T23:06:21.668Z,101313.81
2023-04-09T23:08:49.426Z,101318.19
2023-04-09T23:11:23.789Z,101316.13
2023-04-09T23:13:53.491Z,101316.02
2023-04-09T23:16:21.416Z,101320.71
2023-04-09T23:18:49.402Z,101317.02
2023-04-09T23:21:17.101Z,101317.10
2023-04-09T23:23:49.128Z,101317.56
2023-04-09T23:26:41.517Z,101315.28
2023-04-09T23:29:09.165Z,101313.86
2023-04-09T23:31:37.203Z,101313.85
2023-04-09T23:34:05.333Z,101309.83
2023-04-09T23:36:33.439Z,101311.75
2023-04-09T23:39:03.919Z,101305.41
2023-04-09T23:41:31.680Z,101304.23
2023-04-09T23:44:01.501Z,101302.80
2023-04-09T23:46:29.330Z,101303.74
2023-04-09T23:48:56.994Z,101299.52
2023-04-09T23:51:25.459Z,101295.19
2023-04-09T23:53:53.541Z,101293.09
2023-04-09T23:56:24.639Z,101291.48
2023-04-09T23:58:52.263Z,101295.18
